createdAt,value
2017-05-02T00:00:16.013Z,98.88
2017-05-02T00:01:16.599Z,99.17
2017-05-02T00:02:17.173Z,98.88
2017-05-02T00:03:17.744Z,98.60
2017-05-02T00:04:18.318Z,98.93
2017-05-02T00:05:18.891Z,98.88
2017-05-02T00:06:19.464Z,99.27
2017-05-02T00:07:20.037Z,98.79
2017-05-02T00:08:20.611Z,98.88
2017-05-02T00:09:21.184Z,99.27
2017-05-02T00:10:21.757Z,98.74
2017-05-02T00:11:22.330Z,99.36
2017-05-02T00:12:22.904Z,98.98
2017-05-02T00:13:23.478Z,99.36
2017-05-02T00:14:24.053Z,99.79
2017-05-02T00:15:24.630Z,99.50
2017-05-02T00:16:25.201Z,99.74
2017-05-02T00:17:25.777Z,99.99
2017-05-02T00:18:26.350Z,99.69
2017-05-02T00:19:26.931Z,99.99
2017-05-02T00:20:27.499Z,99.99
2017-05-02T00:21:28.089Z,99.99
2017-05-02T00:22:28.688Z,99.99
2017-05-02T00:23:29.236Z,99.99
2017-05-02T00:24:29.810Z,99.99
2017-05-02T00:25:30.383Z,99.99
2017-05-02T00:26:30.956Z,99.99
2017-05-02T00:27:31.528Z,99.99
2017-05-02T00:28:32.102Z,99.99
2017-05-02T00:29:32.676Z,99.99
2017-05-02T00:30:33.249Z,99.99
2017-05-02T00:31:33.823Z,99.99
2017-05-02T00:32:34.412Z,99.99
2017-05-02T00:33:34.984Z,99.99
2017-05-02T00:34:35.557Z,99.99
2017-05-02T00:35:36.131Z,99.99
2017-05-02T00:36:36.704Z,99.99
2017-05-02T00:37:37.278Z,99.99
2017-05-02T00:38:37.854Z,99.99
2017-05-02T00:39:38.430Z,99.99
2017-05-02T00:40:39.018Z,99.99
2017-05-02T00:41:39.591Z,99.99
2017-05-02T00:42:40.179Z,99.99
2017-05-02T00:43:40.751Z,99.99
2017-05-02T00:44:41.325Z,99.99
2017-05-02T00:45:41.897Z,99.99
2017-05-02T00:46:42.475Z,99.99
2017-05-02T00:47:43.044Z,99.99
2017-05-02T00:48:43.619Z,99.99
2017-05-02T00:49:44.193Z,99.99
2017-05-02T00:50:44.769Z,99.99
2017-05-02T00:51:45.341Z,99.99
2017-05-02T00:52:45.918Z,99.99
2017-05-02T00:53:46.487Z,99.99
2017-05-02T00:54:47.060Z,99.99
2017-05-02T00:55:47.635Z,99.99
2017-05-02T00:56:48.206Z,99.99
2017-05-02T00:57:48.780Z,99.99
2017-05-02T00:58:49.353Z,99.99
2017-05-02T00:59:49.925Z,99.99
2017-05-02T01:00:50.497Z,99.99
2017-05-02T01:01:51.069Z,99.99
2017-05-02T01:02:51.641Z,99.99
2017-05-02T01:03:52.229Z,99.99
2017-05-02T01:04:52.802Z,99.79
2017-05-02T01:05:53.375Z,99.99
2017-05-02T01:06:53.947Z,99.88
2017-05-02T01:07:54.519Z,99.98
2017-05-02T01:08:55.091Z,99.22
2017-05-02T01:09:55.665Z,99.88
2017-05-02T01:10:56.239Z,99.88
2017-05-02T01:11:56.818Z,99.60
2017-05-02T01:12:57.389Z,99.50
2017-05-02T01:13:57.963Z,99.69
2017-05-02T01:14:58.536Z,99.22
2017-05-02T01:15:59.110Z,99.60
2017-05-02T01:16:59.684Z,99.69
2017-05-02T01:18:00.271Z,99.88
2017-05-02T01:19:00.844Z,99.98
2017-05-02T01:20:01.417Z,99.99
2017-05-02T01:21:01.989Z,99.99
2017-05-02T01:22:02.566Z,99.69
2017-05-02T01:23:03.134Z,99.50
2017-05-02T01:24:03.720Z,99.88
2017-05-02T01:25:04.294Z,99.60
2017-05-02T01:26:04.871Z,99.88
2017-05-02T01:27:05.444Z,99.60
2017-05-02T01:28:06.014Z,99.99
2017-05-02T01:29:06.587Z,99.99
2017-05-02T01:30:07.161Z,99.99
2017-05-02T01:31:07.734Z,99.99
2017-05-02T01:32:08.306Z,99.99
2017-05-02T01:33:08.879Z,99.99
2017-05-02T01:34:09.467Z,99.99
2017-05-02T01:35:10.039Z,99.99
2017-05-02T01:36:10.610Z,99.99
2017-05-02T01:37:11.184Z,99.99
2017-05-02T01:38:11.754Z,99.99
2017-05-02T01:39:12.329Z,99.99
2017-05-02T01:40:12.915Z,99.99
2017-05-02T01:41:13.489Z,99.99
2017-05-02T01:42:14.061Z,99.99
2017-05-02T01:43:14.634Z,99.99
2017-05-02T01:44:15.205Z,99.99
2017-05-02T01:45:15.777Z,99.99
2017-05-02T01:46:16.350Z,99.99
2017-05-02T01:47:16.922Z,99.99
2017-05-02T01:48:17.498Z,99.99
2017-05-02T01:49:18.080Z,99.99
2017-05-02T01:50:18.653Z,99.99
2017-05-02T01:51:19.227Z,99.99
2017-05-02T01:52:19.799Z,99.99
2017-05-02T01:53:20.370Z,99.99
2017-05-02T01:54:20.944Z,99.99
2017-05-02T01:55:21.517Z,99.99
2017-05-02T01:56:22.089Z,99.99
2017-05-02T01:57:22.663Z,99.99
2017-05-02T01:58:23.236Z,99.99
2017-05-02T01:59:23.814Z,99.99
2017-05-02T02:00:24.396Z,99.99
2017-05-02T02:01:24.969Z,99.99
2017-05-02T02:02:25.543Z,99.99
2017-05-02T02:03:26.117Z,99.99
2017-05-02T02:04:26.691Z,99.99
2017-05-02T02:05:27.263Z,99.99
2017-05-02T02:06:27.836Z,99.99
2017-05-02T02:07:28.409Z,99.99
2017-05-02T02:08:28.983Z,99.99
2017-05-02T02:09:29.555Z,99.99
2017-05-02T02:10:30.131Z,99.99
2017-05-02T02:11:30.701Z,99.99
2017-05-02T02:12:31.272Z,99.99
2017-05-02T02:13:31.844Z,99.99
2017-05-02T02:14:32.419Z,99.99
2017-05-02T02:15:32.993Z,99.99
2017-05-02T02:16:33.566Z,99.99
2017-05-02T02:17:34.141Z,99.99
2017-05-02T02:18:34.711Z,99.99
2017-05-02T02:19:35.286Z,99.99
2017-05-02T02:20:35.858Z,99.99
2017-05-02T02:21:36.432Z,99.99
2017-05-02T02:22:37.007Z,99.99
2017-05-02T02:23:37.576Z,99.99
2017-05-02T02:24:38.147Z,99.99
2017-05-02T02:25:38.720Z,99.99
2017-05-02T02:26:39.293Z,99.99
2017-05-02T02:27:39.865Z,99.99
2017-05-02T02:28:40.437Z,99.99
2017-05-02T02:29:41.010Z,99.99
2017-05-02T02:30:41.594Z,99.99
2017-05-02T02:31:42.166Z,99.99
2017-05-02T02:32:42.752Z,99.99
2017-05-02T02:33:43.329Z,99.99
2017-05-02T02:34:43.897Z,99.99
2017-05-02T02:35:44.477Z,99.99
2017-05-02T02:36:45.042Z,99.99
2017-05-02T02:37:45.618Z,99.99
2017-05-02T02:38:46.190Z,99.99
2017-05-02T02:39:46.766Z,99.99
2017-05-02T02:40:47.337Z,99.99
2017-05-02T02:41:47.907Z,99.99
2017-05-02T02:42:48.478Z,99.99
2017-05-02T02:43:49.051Z,99.99
2017-05-02T02:44:49.622Z,99.99
2017-05-02T02:45:50.193Z,99.99
2017-05-02T02:46:50.765Z,99.99
2017-05-02T02:47:51.337Z,99.99
2017-05-02T02:48:51.910Z,99.99
2017-05-02T02:49:52.481Z,99.99
2017-05-02T02:50:53.054Z,99.99
2017-05-02T02:51:53.625Z,99.99
2017-05-02T02:52:54.196Z,99.99
2017-05-02T02:53:54.768Z,99.99
2017-05-02T02:54:55.340Z,99.99
2017-05-02T02:55:55.913Z,99.99
2017-05-02T02:56:56.486Z,99.99
2017-05-02T02:57:57.059Z,99.99
2017-05-02T02:58:57.632Z,99.99
2017-05-02T02:59:58.206Z,99.99
2017-05-02T03:00:58.781Z,99.99
2017-05-02T03:01:59.365Z,99.99
2017-05-02T03:02:59.938Z,99.99
2017-05-02T03:04:00.524Z,99.99
2017-05-02T03:05:01.096Z,99.99
2017-05-02T03:06:01.666Z,99.99
2017-05-02T03:07:02.239Z,99.99
2017-05-02T03:08:02.811Z,99.99
2017-05-02T03:09:03.383Z,99.99
2017-05-02T03:10:03.953Z,99.99
2017-05-02T03:11:04.527Z,99.99
2017-05-02T03:12:05.100Z,99.99
2017-05-02T03:13:05.674Z,99.99
2017-05-02T03:14:06.247Z,99.99
2017-05-02T03:15:06.819Z,99.99
2017-05-02T03:16:07.393Z,99.99
2017-05-02T03:17:07.978Z,99.99
2017-05-02T03:18:08.574Z,99.99
2017-05-02T03:19:09.137Z,99.99
2017-05-02T03:20:09.710Z,99.99
2017-05-02T03:21:10.282Z,99.99
2017-05-02T03:22:10.854Z,99.99
2017-05-02T03:23:11.427Z,99.99
2017-05-02T03:24:11.999Z,99.99
2017-05-02T03:25:12.571Z,99.99
2017-05-02T03:26:13.158Z,99.99
2017-05-02T03:27:13.731Z,99.99
2017-05-02T03:28:14.302Z,99.99
2017-05-02T03:29:14.875Z,99.99
2017-05-02T03:30:15.446Z,99.99
2017-05-02T03:31:16.018Z,99.99
2017-05-02T03:32:16.591Z,99.99
2017-05-02T03:33:17.163Z,99.99
2017-05-02T03:34:17.735Z,99.99
2017-05-02T03:35:18.307Z,99.99
2017-05-02T03:36:18.881Z,99.99
2017-05-02T03:37:19.452Z,99.99
2017-05-02T03:38:20.025Z,99.99
2017-05-02T03:39:20.598Z,99.99
2017-05-02T03:40:21.172Z,99.99
2017-05-02T03:41:21.745Z,99.99
2017-05-02T03:42:22.319Z,99.99
2017-05-02T03:43:22.891Z,99.99
2017-05-02T03:44:23.479Z,99.99
2017-05-02T03:45:24.063Z,99.99
2017-05-02T03:46:24.636Z,99.99
2017-05-02T03:47:25.208Z,99.99
2017-05-02T03:48:25.780Z,99.99
2017-05-02T03:49:26.352Z,99.99
2017-05-02T03:50:26.923Z,99.99
2017-05-02T03:51:27.508Z,99.99
2017-05-02T03:52:28.081Z,99.99
2017-05-02T03:53:28.653Z,99.99
2017-05-02T03:54:29.225Z,99.99
2017-05-02T03:55:29.798Z,99.99
2017-05-02T03:56:30.384Z,99.99
2017-05-02T03:57:30.959Z,99.99
2017-05-02T03:58:31.545Z,99.99
2017-05-02T03:59:32.116Z,99.99
2017-05-02T04:00:32.691Z,99.99
2017-05-02T04:01:33.264Z,99.99
2017-05-02T04:02:33.837Z,99.99
2017-05-02T04:03:34.409Z,99.99
2017-05-02T04:04:34.982Z,99.99
2017-05-02T04:05:35.555Z,99.99
2017-05-02T04:06:36.128Z,99.99
2017-05-02T04:07:36.715Z,99.99
2017-05-02T04:08:37.288Z,99.99
2017-05-02T04:09:37.861Z,99.99
2017-05-02T04:10:38.433Z,99.99
2017-05-02T04:11:39.020Z,99.99
2017-05-02T04:12:39.596Z,99.99
2017-05-02T04:13:40.169Z,99.99
2017-05-02T04:14:40.792Z,99.99
2017-05-02T04:15:41.369Z,99.99
2017-05-02T04:16:41.942Z,99.99
2017-05-02T04:17:42.516Z,99.99
2017-05-02T04:18:43.090Z,99.99
2017-05-02T04:19:43.666Z,99.99
2017-05-02T04:20:44.252Z,99.99
2017-05-02T04:21:44.825Z,99.99
2017-05-02T04:22:45.399Z,99.99
2017-05-02T04:23:45.972Z,99.99
2017-05-02T04:24:46.559Z,99.99
2017-05-02T04:25:47.133Z,99.99
2017-05-02T04:26:47.706Z,99.99
2017-05-02T04:27:48.280Z,99.99
2017-05-02T04:28:48.868Z,99.99
2017-05-02T04:29:49.442Z,99.99
2017-05-02T04:30:50.015Z,99.99
2017-05-02T04:31:50.589Z,99.99
2017-05-02T04:32:51.163Z,99.99
2017-05-02T04:33:51.737Z,99.99
2017-05-02T04:34:52.323Z,99.99
2017-05-02T04:35:52.898Z,99.99
2017-05-02T04:36:53.470Z,99.99
2017-05-02T04:37:54.044Z,99.99
2017-05-02T04:38:54.618Z,99.99
2017-05-02T04:39:55.193Z,99.99
2017-05-02T04:40:55.766Z,99.99
2017-05-02T04:41:56.339Z,99.99
2017-05-02T04:42:56.915Z,99.99
2017-05-02T04:43:57.501Z,99.99
2017-05-02T04:44:58.075Z,99.99
2017-05-02T04:45:58.650Z,99.99
2017-05-02T04:46:59.224Z,99.99
2017-05-02T04:47:59.796Z,99.99
2017-05-02T04:49:00.368Z,99.99
2017-05-02T04:50:00.943Z,99.99
2017-05-02T04:51:01.515Z,99.99
2017-05-02T04:52:02.088Z,99.99
2017-05-02T04:53:02.671Z,99.99
2017-05-02T04:54:03.236Z,99.99
2017-05-02T04:55:03.811Z,99.99
2017-05-02T04:56:04.399Z,99.99
2017-05-02T04:57:04.974Z,99.99
2017-05-02T04:58:05.549Z,99.99
2017-05-02T04:59:06.123Z,99.99
2017-05-02T05:00:06.699Z,99.99
2017-05-02T05:01:07.271Z,99.99
2017-05-02T05:02:07.844Z,99.99
2017-05-02T05:03:08.418Z,99.99
2017-05-02T05:04:08.990Z,99.99
2017-05-02T05:05:09.566Z,99.99
2017-05-02T05:06:10.141Z,99.99
2017-05-02T05:07:10.714Z,99.99
2017-05-02T05:08:11.287Z,99.99
2017-05-02T05:09:11.862Z,99.99
2017-05-02T05:10:12.436Z,99.99
2017-05-02T05:11:13.011Z,99.99
2017-05-02T05:12:13.585Z,99.99
2017-05-02T05:13:14.161Z,99.99
2017-05-02T05:14:14.738Z,99.99
2017-05-02T05:15:15.311Z,99.99
2017-05-02T05:16:15.889Z,99.99
2017-05-02T05:17:16.478Z,99.99
2017-05-02T05:18:17.053Z,99.99
2017-05-02T05:19:17.627Z,99.99
2017-05-02T05:20:18.204Z,99.99
2017-05-02T05:21:18.775Z,99.99
2017-05-02T05:22:19.357Z,99.99
2017-05-02T05:23:19.931Z,99.99
2017-05-02T05:24:20.506Z,99.99
2017-05-02T05:25:21.099Z,99.99
2017-05-02T05:26:21.669Z,99.99
2017-05-02T05:27:22.243Z,99.99
2017-05-02T05:28:22.819Z,99.99
2017-05-02T05:29:23.393Z,99.99
2017-05-02T05:30:23.967Z,99.99
2017-05-02T05:31:24.554Z,99.99
2017-05-02T05:32:25.126Z,99.99
2017-05-02T05:33:25.703Z,99.99
2017-05-02T05:34:26.278Z,99.99
2017-05-02T05:35:26.854Z,99.99
2017-05-02T05:36:27.440Z,99.99
2017-05-02T05:37:28.014Z,99.99
2017-05-02T05:38:28.591Z,99.99
2017-05-02T05:39:29.164Z,99.99
2017-05-02T05:40:29.749Z,99.99
2017-05-02T05:41:30.326Z,99.99
2017-05-02T05:42:30.901Z,99.99
2017-05-02T05:43:31.474Z,99.99
2017-05-02T05:44:32.047Z,99.99
2017-05-02T05:45:32.621Z,99.99
2017-05-02T05:46:33.197Z,99.99
2017-05-02T05:47:33.772Z,99.99
2017-05-02T05:48:34.348Z,99.99
2017-05-02T05:49:34.924Z,99.99
2017-05-02T05:50:35.499Z,99.99
2017-05-02T05:51:36.073Z,99.99
2017-05-02T05:52:36.648Z,99.99
2017-05-02T05:53:37.235Z,99.99
2017-05-02T05:54:37.826Z,99.99
2017-05-02T05:55:38.397Z,99.99
2017-05-02T05:56:38.972Z,99.99
2017-05-02T05:57:39.549Z,99.99
2017-05-02T05:58:40.121Z,99.99
2017-05-02T05:59:40.697Z,99.99
2017-05-02T06:00:41.271Z,99.99
2017-05-02T06:01:41.849Z,99.99
2017-05-02T06:02:42.424Z,99.99
2017-05-02T06:03:42.998Z,99.99
2017-05-02T06:04:43.571Z,99.99
2017-05-02T06:05:44.146Z,99.99
2017-05-02T06:06:44.735Z,99.99
2017-05-02T06:07:45.307Z,99.99
2017-05-02T06:08:45.882Z,99.99
2017-05-02T06:09:46.458Z,99.99
2017-05-02T06:10:47.032Z,99.99
2017-05-02T06:11:47.609Z,99.99
2017-05-02T06:12:48.199Z,99.99
2017-05-02T06:13:48.787Z,99.99
2017-05-02T06:14:49.363Z,99.99
2017-05-02T06:15:49.953Z,99.99
2017-05-02T06:16:50.540Z,99.99
2017-05-02T06:17:51.116Z,99.99
2017-05-02T06:18:51.692Z,99.99
2017-05-02T06:19:52.270Z,99.99
2017-05-02T06:20:52.843Z,99.99
2017-05-02T06:21:53.418Z,99.99
2017-05-02T06:22:53.995Z,99.99
2017-05-02T06:23:54.570Z,99.99
2017-05-02T06:24:55.146Z,99.99
2017-05-02T06:25:55.721Z,99.99
2017-05-02T06:26:56.297Z,99.99
2017-05-02T06:27:56.870Z,99.99
2017-05-02T06:28:57.447Z,99.99
2017-05-02T06:29:58.032Z,99.99
2017-05-02T06:30:58.607Z,99.99
2017-05-02T06:31:59.207Z,99.99
2017-05-02T06:32:59.759Z,99.99
2017-05-02T06:34:00.333Z,99.99
2017-05-02T06:35:00.910Z,99.99
2017-05-02T06:36:01.486Z,99.99
2017-05-02T06:37:02.059Z,99.99
2017-05-02T06:38:02.634Z,99.99
2017-05-02T06:39:03.209Z,99.99
2017-05-02T06:40:03.786Z,99.99
2017-05-02T06:41:04.360Z,99.99
2017-05-02T06:42:04.937Z,99.99
2017-05-02T06:43:05.512Z,99.99
2017-05-02T06:44:06.087Z,99.99
2017-05-02T06:45:06.675Z,99.99
2017-05-02T06:46:07.248Z,99.99
2017-05-02T06:47:07.824Z,99.99
2017-05-02T06:48:08.402Z,99.99
2017-05-02T06:49:08.991Z,99.99
2017-05-02T06:50:09.568Z,99.99
2017-05-02T06:51:10.143Z,99.99
2017-05-02T06:52:10.719Z,99.99
2017-05-02T06:53:11.295Z,99.99
2017-05-02T06:54:11.870Z,99.99
2017-05-02T06:55:12.444Z,99.99
2017-05-02T06:56:13.022Z,99.99
2017-05-02T06:57:13.596Z,99.99
2017-05-02T06:58:14.177Z,99.99
2017-05-02T06:59:14.749Z,99.99
2017-05-02T07:00:15.329Z,99.99
2017-05-02T07:01:15.898Z,99.99
2017-05-02T07:02:16.474Z,99.99
2017-05-02T07:03:17.064Z,99.99
2017-05-02T07:04:17.640Z,99.99
2017-05-02T07:05:18.214Z,99.99
2017-05-02T07:06:18.791Z,99.99
2017-05-02T07:07:19.366Z,99.99
2017-05-02T07:08:19.940Z,99.99
2017-05-02T07:09:20.515Z,99.99
2017-05-02T07:10:21.089Z,99.99
2017-05-02T07:11:21.666Z,99.99
2017-05-02T07:12:22.243Z,99.99
2017-05-02T07:13:22.819Z,99.99
2017-05-02T07:14:23.396Z,99.99
2017-05-02T07:15:23.986Z,99.99
2017-05-02T07:16:24.562Z,99.99
2017-05-02T07:17:25.137Z,99.99
2017-05-02T07:18:25.713Z,99.99
2017-05-02T07:19:26.291Z,99.99
2017-05-02T07:20:26.866Z,99.99
2017-05-02T07:21:27.444Z,99.99
2017-05-02T07:22:28.017Z,99.99
2017-05-02T07:23:28.594Z,99.99
2017-05-02T07:24:29.173Z,99.99
2017-05-02T07:25:29.749Z,99.99
2017-05-02T07:26:30.325Z,99.99
2017-05-02T07:27:30.902Z,99.99
2017-05-02T07:28:31.481Z,99.99
2017-05-02T07:29:32.060Z,99.99
2017-05-02T07:30:32.642Z,99.99
2017-05-02T07:31:33.213Z,99.99
2017-05-02T07:32:33.793Z,99.99
2017-05-02T07:33:34.370Z,99.99
2017-05-02T07:34:34.948Z,99.99
2017-05-02T07:35:35.525Z,99.99
2017-05-02T07:36:36.101Z,99.99
2017-05-02T07:37:36.680Z,99.99
2017-05-02T07:38:37.258Z,99.99
2017-05-02T07:39:37.834Z,99.22
2017-05-02T07:40:38.414Z,99.51
2017-05-02T07:41:38.991Z,98.84
2017-05-02T07:42:39.576Z,99.32
2017-05-02T07:43:40.146Z,98.94
2017-05-02T07:44:40.738Z,99.41
2017-05-02T07:45:41.345Z,99.41
2017-05-02T07:46:41.923Z,99.51
2017-05-02T07:47:42.499Z,99.03
2017-05-02T07:48:43.079Z,97.41
2017-05-02T07:49:43.656Z,97.60
2017-05-02T07:50:44.235Z,96.17
2017-05-02T07:51:44.811Z,94.84
2017-05-02T07:52:45.388Z,96.36
2017-05-02T07:53:45.993Z,95.84
2017-05-02T07:54:46.545Z,94.89
2017-05-02T07:55:47.123Z,95.17
2017-05-02T07:56:47.703Z,95.08
2017-05-02T07:57:48.281Z,95.27
2017-05-02T07:58:48.857Z,95.17
2017-05-02T07:59:49.435Z,95.08
2017-05-02T08:00:50.014Z,95.36
2017-05-02T08:01:50.595Z,94.98
2017-05-02T08:02:51.172Z,94.41
2017-05-02T08:03:51.748Z,94.60
2017-05-02T08:04:52.326Z,92.60
2017-05-02T08:05:52.904Z,93.37
2017-05-02T08:06:53.482Z,94.60
2017-05-02T08:07:54.058Z,93.08
2017-05-02T08:08:54.636Z,94.32
2017-05-02T08:09:55.216Z,94.03
2017-05-02T08:10:55.794Z,93.98
2017-05-02T08:11:56.372Z,93.03
2017-05-02T08:12:56.951Z,92.84
2017-05-02T08:13:57.529Z,92.36
2017-05-02T08:14:58.144Z,91.50
2017-05-02T08:15:58.685Z,91.50
2017-05-02T08:16:59.263Z,92.46
2017-05-02T08:17:59.845Z,92.08
2017-05-02T08:19:00.420Z,92.36
2017-05-02T08:20:00.998Z,92.46
2017-05-02T08:21:01.577Z,92.41
2017-05-02T08:22:02.154Z,91.27
2017-05-02T08:23:02.733Z,90.41
2017-05-02T08:24:03.314Z,90.64
2017-05-02T08:25:03.889Z,88.93
2017-05-02T08:26:04.467Z,89.89
2017-05-02T08:27:05.045Z,89.17
2017-05-02T08:28:05.623Z,89.98
2017-05-02T08:29:06.203Z,89.69
2017-05-02T08:30:06.785Z,90.45
2017-05-02T08:31:07.361Z,90.74
2017-05-02T08:32:07.940Z,90.26
2017-05-02T08:33:08.530Z,90.08
2017-05-02T08:34:09.114Z,90.08
2017-05-02T08:35:09.689Z,90.17
2017-05-02T08:36:10.266Z,89.69
2017-05-02T08:37:10.843Z,90.26
2017-05-02T08:38:11.426Z,90.74
2017-05-02T08:39:11.999Z,90.45
2017-05-02T08:40:12.584Z,90.26
2017-05-02T08:41:13.156Z,89.79
2017-05-02T08:42:13.749Z,88.93
2017-05-02T08:43:14.327Z,88.74
2017-05-02T08:44:14.907Z,89.79
2017-05-02T08:45:15.497Z,89.54
2017-05-02T08:46:16.077Z,89.83
2017-05-02T08:47:16.657Z,89.83
2017-05-02T08:48:17.233Z,88.59
2017-05-02T08:49:17.812Z,88.59
2017-05-02T08:50:18.391Z,87.54
2017-05-02T08:51:18.971Z,88.26
2017-05-02T08:52:19.549Z,87.40
2017-05-02T08:53:20.128Z,87.83
2017-05-02T08:54:20.706Z,88.02
2017-05-02T08:55:21.286Z,87.74
2017-05-02T08:56:21.865Z,87.64
2017-05-02T08:57:22.444Z,87.26
2017-05-02T08:58:23.024Z,86.49
2017-05-02T08:59:23.602Z,85.97
2017-05-02T09:00:24.179Z,86.30
2017-05-02T09:01:24.758Z,85.21
2017-05-02T09:02:25.335Z,85.69
2017-05-02T09:03:25.915Z,85.54
2017-05-02T09:04:26.507Z,86.21
2017-05-02T09:05:27.085Z,86.02
2017-05-02T09:06:27.665Z,85.41
2017-05-02T09:07:28.245Z,84.83
2017-05-02T09:08:28.823Z,85.41
2017-05-02T09:09:29.405Z,84.45
2017-05-02T09:10:29.983Z,83.50
2017-05-02T09:11:30.561Z,84.11
2017-05-02T09:12:31.140Z,84.20
2017-05-02T09:13:31.719Z,83.06
2017-05-02T09:14:32.298Z,84.97
2017-05-02T09:15:32.877Z,84.78
2017-05-02T09:16:33.467Z,84.20
2017-05-02T09:17:34.047Z,84.01
2017-05-02T09:18:34.624Z,84.30
2017-05-02T09:19:35.204Z,84.59
2017-05-02T09:20:35.795Z,83.06
2017-05-02T09:21:36.374Z,82.78
2017-05-02T09:22:36.956Z,83.54
2017-05-02T09:23:37.534Z,84.49
2017-05-02T09:24:38.113Z,83.92
2017-05-02T09:25:38.692Z,83.44
2017-05-02T09:26:39.268Z,82.87
2017-05-02T09:27:39.848Z,82.49
2017-05-02T09:28:40.426Z,83.54
2017-05-02T09:29:41.007Z,82.59
2017-05-02T09:30:41.586Z,83.16
2017-05-02T09:31:42.179Z,82.01
2017-05-02T09:32:42.755Z,82.78
2017-05-02T09:33:43.334Z,83.39
2017-05-02T09:34:43.913Z,83.39
2017-05-02T09:35:44.494Z,81.29
2017-05-02T09:36:45.082Z,81.29
2017-05-02T09:37:45.655Z,81.29
2017-05-02T09:38:46.237Z,81.77
2017-05-02T09:39:46.813Z,81.38
2017-05-02T09:40:47.393Z,80.53
2017-05-02T09:41:47.985Z,79.67
2017-05-02T09:42:48.565Z,80.62
2017-05-02T09:43:49.147Z,79.57
2017-05-02T09:44:49.727Z,79.04
2017-05-02T09:45:50.308Z,79.43
2017-05-02T09:46:50.888Z,78.85
2017-05-02T09:47:51.468Z,78.56
2017-05-02T09:48:52.048Z,78.47
2017-05-02T09:49:52.629Z,80.05
2017-05-02T09:50:53.207Z,79.10
2017-05-02T09:51:53.786Z,79.80
2017-05-02T09:52:54.366Z,81.85
2017-05-02T09:53:54.945Z,80.51
2017-05-02T09:54:55.527Z,79.23
2017-05-02T09:55:56.106Z,78.85
2017-05-02T09:56:56.687Z,78.75
2017-05-02T09:57:57.268Z,78.56
2017-05-02T09:58:57.847Z,78.56
2017-05-02T09:59:58.426Z,78.56
2017-05-02T10:00:59.007Z,78.56
2017-05-02T10:01:59.585Z,78.56
2017-05-02T10:03:00.164Z,78.37
2017-05-02T10:04:00.745Z,77.13
2017-05-02T10:05:01.325Z,77.61
2017-05-02T10:06:01.905Z,77.89
2017-05-02T10:07:02.498Z,77.23
2017-05-02T10:08:03.082Z,77.13
2017-05-02T10:09:03.661Z,77.03
2017-05-02T10:10:04.237Z,77.70
2017-05-02T10:11:04.817Z,77.26
2017-05-02T10:12:05.398Z,76.40
2017-05-02T10:13:05.984Z,75.70
2017-05-02T10:14:06.559Z,76.88
2017-05-02T10:15:07.141Z,75.26
2017-05-02T10:16:07.722Z,74.88
2017-05-02T10:17:08.304Z,75.07
2017-05-02T10:18:08.886Z,76.12
2017-05-02T10:19:09.466Z,75.35
2017-05-02T10:20:10.049Z,74.49
2017-05-02T10:21:10.628Z,74.98
2017-05-02T10:22:11.209Z,74.59
2017-05-02T10:23:11.790Z,74.27
2017-05-02T10:24:12.373Z,74.69
2017-05-02T10:25:12.953Z,74.49
2017-05-02T10:26:13.536Z,75.16
2017-05-02T10:27:14.120Z,75.07
2017-05-02T10:28:14.700Z,73.86
2017-05-02T10:29:15.278Z,73.48
2017-05-02T10:30:15.861Z,73.16
2017-05-02T10:31:16.442Z,73.44
2017-05-02T10:32:17.037Z,73.16
2017-05-02T10:33:17.630Z,73.39
2017-05-02T10:34:18.210Z,72.20
2017-05-02T10:35:18.794Z,72.49
2017-05-02T10:36:19.373Z,72.72
2017-05-02T10:37:19.953Z,72.11
2017-05-02T10:38:20.535Z,73.29
2017-05-02T10:39:21.115Z,72.91
2017-05-02T10:40:21.698Z,73.35
2017-05-02T10:41:22.275Z,73.35
2017-05-02T10:42:22.857Z,74.08
2017-05-02T10:43:23.440Z,73.73
2017-05-02T10:44:24.021Z,73.73
2017-05-02T10:45:24.603Z,72.87
2017-05-02T10:46:25.186Z,73.29
2017-05-02T10:47:25.764Z,71.57
2017-05-02T10:48:26.350Z,71.67
2017-05-02T10:49:26.926Z,71.38
2017-05-02T10:50:27.506Z,72.24
2017-05-02T10:51:28.089Z,71.86
2017-05-02T10:52:28.671Z,72.05
2017-05-02T10:53:29.265Z,72.85
2017-05-02T10:54:29.847Z,71.22
2017-05-02T10:55:30.429Z,70.96
2017-05-02T10:56:31.016Z,72.68
2017-05-02T10:57:31.593Z,73.10
2017-05-02T10:58:32.176Z,71.57
2017-05-02T10:59:32.758Z,72.05
2017-05-02T11:00:33.353Z,72.24
2017-05-02T11:01:33.934Z,72.75
2017-05-02T11:02:34.517Z,71.80
2017-05-02T11:03:35.098Z,71.76
2017-05-02T11:04:35.679Z,73.07
2017-05-02T11:05:36.262Z,73.29
2017-05-02T11:06:36.840Z,73.63
2017-05-02T11:07:37.435Z,74.02
2017-05-02T11:08:38.019Z,74.49
2017-05-02T11:09:38.596Z,75.16
2017-05-02T11:10:39.174Z,75.16
2017-05-02T11:11:39.757Z,75.54
2017-05-02T11:12:40.335Z,76.03
2017-05-02T11:13:40.917Z,75.74
2017-05-02T11:14:41.497Z,74.78
2017-05-02T11:15:42.076Z,74.46
2017-05-02T11:16:42.670Z,73.98
2017-05-02T11:17:43.263Z,73.79
2017-05-02T11:18:43.842Z,74.27
2017-05-02T11:19:44.421Z,74.17
2017-05-02T11:20:45.001Z,73.60
2017-05-02T11:21:45.581Z,74.08
2017-05-02T11:22:46.189Z,73.63
2017-05-02T11:23:46.741Z,74.27
2017-05-02T11:24:47.321Z,74.21
2017-05-02T11:25:47.902Z,73.73
2017-05-02T11:26:48.483Z,73.22
2017-05-02T11:27:49.063Z,73.79
2017-05-02T11:28:49.643Z,73.98
2017-05-02T11:29:50.226Z,74.08
2017-05-02T11:30:50.805Z,74.27
2017-05-02T11:31:51.384Z,74.27
2017-05-02T11:32:51.965Z,74.99
2017-05-02T11:33:52.544Z,75.09
2017-05-02T11:34:53.124Z,74.99
2017-05-02T11:35:53.702Z,74.61
2017-05-02T11:36:54.281Z,76.23
2017-05-02T11:37:54.863Z,74.90
2017-05-02T11:38:55.443Z,75.28
2017-05-02T11:39:56.021Z,75.18
2017-05-02T11:40:56.602Z,75.47
2017-05-02T11:41:57.194Z,75.98
2017-05-02T11:42:57.774Z,75.89
2017-05-02T11:43:58.355Z,76.08
2017-05-02T11:44:58.935Z,75.98
2017-05-02T11:45:59.515Z,76.04
2017-05-02T11:47:00.097Z,76.81
2017-05-02T11:48:00.676Z,75.95
2017-05-02T11:49:01.253Z,75.95
2017-05-02T11:50:01.835Z,76.42
2017-05-02T11:51:02.414Z,76.14
2017-05-02T11:52:02.993Z,75.95
2017-05-02T11:53:03.573Z,75.57
2017-05-02T11:54:04.154Z,75.66
2017-05-02T11:55:04.731Z,75.95
2017-05-02T11:56:05.308Z,75.95
2017-05-02T11:57:05.900Z,75.89
2017-05-02T11:58:06.486Z,74.71
2017-05-02T11:59:07.059Z,75.66
2017-05-02T12:00:07.639Z,75.60
2017-05-02T12:01:08.218Z,75.57
2017-05-02T12:02:08.797Z,75.70
2017-05-02T12:03:09.375Z,75.22
2017-05-02T12:04:09.956Z,75.32
2017-05-02T12:05:10.536Z,74.46
2017-05-02T12:06:11.114Z,75.22
2017-05-02T12:07:11.693Z,74.65
2017-05-02T12:08:12.273Z,74.46
2017-05-02T12:09:12.854Z,74.17
2017-05-02T12:10:13.433Z,75.13
2017-05-02T12:11:14.013Z,73.98
2017-05-02T12:12:14.606Z,74.02
2017-05-02T12:13:15.187Z,72.74
2017-05-02T12:14:15.766Z,72.83
2017-05-02T12:15:16.345Z,73.12
2017-05-02T12:16:16.925Z,72.36
2017-05-02T12:17:17.505Z,72.01
2017-05-02T12:18:18.087Z,71.76
2017-05-02T12:19:18.667Z,71.28
2017-05-02T12:20:19.248Z,71.28
2017-05-02T12:21:19.833Z,70.77
2017-05-02T12:22:20.423Z,71.63
2017-05-02T12:23:21.001Z,71.44
2017-05-02T12:24:21.580Z,71.82
2017-05-02T12:25:22.161Z,72.17
2017-05-02T12:26:22.741Z,72.20
2017-05-02T12:27:23.323Z,71.92
2017-05-02T12:28:23.900Z,72.20
2017-05-02T12:29:24.480Z,72.45
2017-05-02T12:30:25.062Z,73.41
2017-05-02T12:31:25.640Z,73.88
2017-05-02T12:32:26.229Z,74.37
2017-05-02T12:33:26.830Z,74.37
2017-05-02T12:34:27.432Z,74.65
2017-05-02T12:35:28.011Z,74.93
2017-05-02T12:36:28.593Z,74.74
2017-05-02T12:37:29.174Z,74.46
2017-05-02T12:38:29.753Z,74.65
2017-05-02T12:39:30.334Z,74.27
2017-05-02T12:40:30.926Z,74.46
2017-05-02T12:41:31.506Z,74.93
2017-05-02T12:42:32.085Z,74.55
2017-05-02T12:43:32.665Z,74.74
2017-05-02T12:44:33.249Z,74.08
2017-05-02T12:45:33.840Z,74.74
2017-05-02T12:46:34.420Z,75.22
2017-05-02T12:47:34.999Z,75.32
2017-05-02T12:48:35.576Z,74.65
2017-05-02T12:49:36.157Z,74.37
2017-05-02T12:50:36.736Z,74.84
2017-05-02T12:51:37.318Z,74.55
2017-05-02T12:52:37.909Z,73.98
2017-05-02T12:53:38.487Z,74.74
2017-05-02T12:56:42.214Z,73.03
2017-05-02T12:57:42.793Z,73.41
2017-05-02T12:58:43.370Z,73.12
2017-05-02T12:59:43.950Z,73.22
2017-05-02T13:00:44.528Z,71.69
2017-05-02T13:01:45.103Z,71.78